Time;durP1;ratioP1;P1;durP2;ratioP2;P2;SDS_P1;SDS_P2;PMS_P1;PMS_P2;Temp;Humidity;BMP_temperature;BMP_pressure;BME280_temperature;BME280_humidity;BME280_pressure;Samples;Min_cycle;Max_cycle;Signal;HPM_P1;HPM_P2
2023/02/25 00:01:38;;;;;;;;;;;5.20;88.10;;;;;;5092753;28;19987;-31
2023/02/25 00:04:04;;;;;;;;;;;5.20;88.10;;;;;;5091704;28;19908;-32
2023/02/25 00:06:29;;;;;;;;;;;5.20;88.00;;;;;;5092539;28;19908;-34
2023/02/25 00:08:55;;;;;;;;;;;5.20;87.80;;;;;;5091027;28;19930;-31
2023/02/25 00:11:21;;;;;;;;;;;5.20;87.90;;;;;;5092317;28;19908;-36
2023/02/25 00:13:47;;;;;;;;;;;5.20;88.00;;;;;;5092275;28;19908;-32
2023/02/25 00:16:13;;;;;;;;;;;5.20;88.10;;;;;;5092164;28;19908;-28
2023/02/25 00:18:42;;;;;;;;;;;5.20;88.20;;;;;;5092015;28;20350;-34
2023/02/25 00:21:08;;;;;;;;;;;5.20;88.30;;;;;;5092075;28;20436;-28
2023/02/25 00:23:34;;;;;;;;;;;5.20;88.30;;;;;;5092065;28;19995;-28
2023/02/25 00:26:01;;;;;;;;;;;5.20;88.40;;;;;;5092012;28;19912;-34
2023/02/25 00:28:27;;;;;;;;;;;5.20;88.40;;;;;;5092125;28;20383;-33
2023/02/25 00:30:52;;;;;;;;;;;5.10;88.40;;;;;;5092216;28;19915;-28
2023/02/25 00:33:18;;;;;;;;;;;5.20;88.50;;;;;;5091829;28;20395;-30
2023/02/25 00:35:43;;;;;;;;;;;5.10;88.30;;;;;;5091763;28;19911;-28
2023/02/25 00:38:09;;;;;;;;;;;5.10;88.50;;;;;;5091776;28;19912;-31
2023/02/25 00:40:38;;;;;;;;;;;5.20;88.60;;;;;;5091772;28;19997;-28
2023/02/25 00:43:04;;;;;;;;;;;5.20;88.50;;;;;;5091991;28;19912;-42
2023/02/25 00:45:29;;;;;;;;;;;5.20;88.60;;;;;;5091576;28;19915;-27
2023/02/25 00:47:55;;;;;;;;;;;5.20;88.60;;;;;;5091790;28;19908;-27
2023/02/25 00:50:20;;;;;;;;;;;5.20;88.50;;;;;;5091634;28;20312;-29
2023/02/25 00:52:46;;;;;;;;;;;5.20;88.60;;;;;;5091657;28;20020;-28
2023/02/25 00:55:11;;;;;;;;;;;5.20;88.70;;;;;;5090186;28;19915;-27
2023/02/25 00:57:37;;;;;;;;;;;5.20;88.70;;;;;;5091446;28;19912;-36
2023/02/25 01:00:08;;;;;;;;;;;5.20;88.70;;;;;;5091281;28;19984;-28
2023/02/25 01:02:34;;;;;;;;;;;5.20;88.70;;;;;;5091317;28;19908;-31
2023/02/25 01:04:59;;;;;;;;;;;5.20;88.70;;;;;;5091385;28;19964;-31
2023/02/25 01:07:25;;;;;;;;;;;5.20;88.60;;;;;;5089995;28;20292;-29
2023/02/25 01:09:53;;;;;;;;;;;5.10;88.50;;;;;;5091351;28;19969;-33
2023/02/25 01:12:19;;;;;;;;;;;5.10;88.50;;;;;;5091499;28;20015;-27
2023/02/25 01:14:44;;;;;;;;;;;5.10;88.60;;;;;;5091066;28;20332;-30
2023/02/25 01:17:10;;;;;;;;;;;5.10;88.50;;;;;;5091366;28;19912;-27
2023/02/25 01:19:35;;;;;;;;;;;5.10;89.20;;;;;;5090940;28;19983;-29
2023/02/25 01:22:01;;;;;;;;;;;5.00;88.60;;;;;;5091318;28;19908;-33
2023/02/25 01:24:28;;;;;;;;;;;5.00;88.70;;;;;;5091287;28;19908;-31
2023/02/25 01:26:55;;;;;;;;;;;5.00;88.80;;;;;;5091080;28;19915;-31
2023/02/25 01:29:27;;;;;;;;;;;5.00;88.80;;;;;;5091083;28;19915;-32
2023/02/25 01:31:54;;;;;;;;;;;5.00;88.90;;;;;;5091167;28;19908;-29
2023/02/25 01:34:19;;;;;;;;;;;5.00;88.90;;;;;;5091185;28;20011;-33
2023/02/25 01:36:45;;;;;;;;;;;5.00;88.90;;;;;;5091143;28;19951;-26
2023/02/25 01:39:12;;;;;;;;;;;4.90;88.90;;;;;;5091216;28;19912;-27
2023/02/25 01:41:38;;;;;;;;;;;4.90;88.90;;;;;;5091576;28;19908;-29
2023/02/25 01:44:09;;;;;;;;;;;4.90;88.90;;;;;;5091004;28;20381;-27
2023/02/25 01:46:39;;;;;;;;;;;4.90;89.00;;;;;;5090964;28;19908;-28
2023/02/25 01:49:15;;;;;;;;;;;4.80;89.00;;;;;;5090943;28;20320;-28
2023/02/25 01:51:42;;;;;;;;;;;4.80;89.20;;;;;;5090947;28;19908;-30
2023/02/25 01:54:09;;;;;;;;;;;4.80;89.20;;;;;;5089665;28;19908;-27
2023/02/25 01:56:37;;;;;;;;;;;4.90;89.10;;;;;;5090995;28;19919;-30
2023/02/25 01:59:03;;;;;;;;;;;4.90;89.00;;;;;;5090787;28;19912;-29
2023/02/25 02:01:30;;;;;;;;;;;4.90;89.00;;;;;;5090886;28;19999;-29
2023/02/25 02:03:55;;;;;;;;;;;4.90;88.90;;;;;;5090862;28;19908;-29
2023/02/25 02:06:24;;;;;;;;;;;4.90;89.20;;;;;;5090813;28;20419;-30
2023/02/25 02:08:49;;;;;;;;;;;4.90;88.50;;;;;;5090719;28;19915;-30
2023/02/25 02:11:15;;;;;;;;;;;4.90;88.40;;;;;;5090741;28;19912;-26
2023/02/25 02:13:44;;;;;;;;;;;4.90;88.30;;;;;;5090412;28;20287;-36
2023/02/25 02:16:21;;;;;;;;;;;4.90;88.30;;;;;;5090565;28;19914;-36
2023/02/25 02:18:48;;;;;;;;;;;4.90;88.30;;;;;;5090012;28;19924;-28
2023/02/25 02:21:28;;;;;;;;;;;4.90;88.40;;;;;;5090190;28;19908;-33
2023/02/25 02:23:54;;;;;;;;;;;5.00;88.50;;;;;;5089956;28;19969;-36
2023/02/25 02:26:20;;;;;;;;;;;5.00;88.50;;;;;;5091442;28;20002;-29
2023/02/25 02:29:04;;;;;;;;;;;5.00;88.50;;;;;;5094022;28;20061;-26
2023/02/25 02:31:33;;;;;;;;;;;5.10;88.50;;;;;;5093855;28;19908;-28
2023/02/25 02:34:05;;;;;;;;;;;5.10;88.50;;;;;;5094183;28;19908;-31
2023/02/25 02:36:30;;;;;;;;;;;5.10;88.40;;;;;;5093849;28;19908;-28
2023/02/25 02:39:16;;;;;;;;;;;5.20;88.50;;;;;;5093601;28;19919;-27
2023/02/25 02:41:56;;;;;;;;;;;5.20;88.40;;;;;;5071936;28;19912;-28
2023/02/25 02:44:40;;;;;;;;;;;5.20;88.40;;;;;;5092294;28;19991;-31
2023/02/25 02:47:11;;;;;;;;;;;5.20;88.40;;;;;;5093960;28;20300;-29
2023/02/25 02:49:44;;;;;;;;;;;5.20;88.30;;;;;;5093716;28;19908;-29
2023/02/25 02:52:14;;;;;;;;;;;5.30;88.40;;;;;;5093570;28;19919;-36
2023/02/25 02:54:42;;;;;;;;;;;5.20;88.30;;;;;;5093544;28;20395;-32
2023/02/25 02:57:09;;;;;;;;;;;5.30;88.30;;;;;;5093656;28;19908;-28
2023/02/25 02:59:41;;;;;;;;;;;5.20;88.20;;;;;;5093668;28;19919;-28
2023/02/25 03:02:10;;;;;;;;;;;5.30;88.30;;;;;;5093326;28;19991;-29
2023/02/25 03:04:37;;;;;;;;;;;5.30;88.20;;;;;;5093070;28;19958;-27
2023/02/25 03:07:04;;;;;;;;;;;5.30;88.20;;;;;;5093172;28;20313;-40
2023/02/25 03:10:02;;;;;;;;;;;5.30;88.30;;;;;;5091799;28;19908;-31
2023/02/25 03:12:28;;;;;;;;;;;5.30;88.20;;;;;;5069567;28;19977;-29
2023/02/25 03:14:55;;;;;;;;;;;5.30;88.20;;;;;;5093151;28;20296;-32
2023/02/25 03:17:23;;;;;;;;;;;5.30;88.20;;;;;;5093188;28;19916;-29
2023/02/25 03:20:07;;;;;;;;;;;5.40;88.20;;;;;;5092875;28;19981;-27
2023/02/25 03:22:35;;;;;;;;;;;5.40;88.10;;;;;;5092953;28;19908;-33
2023/02/25 03:25:07;;;;;;;;;;;5.40;88.00;;;;;;5092734;28;20370;-31
2023/02/25 03:27:35;;;;;;;;;;;5.40;88.60;;;;;;5092817;28;19908;-31
2023/02/25 03:30:33;;;;;;;;;;;5.40;88.00;;;;;;5092770;28;19958;-30
2023/02/25 03:33:04;;;;;;;;;;;5.40;87.90;;;;;;5069266;28;19987;-28
2023/02/25 03:35:31;;;;;;;;;;;5.40;87.90;;;;;;5092833;28;19954;-29
2023/02/25 03:38:02;;;;;;;;;;;5.40;87.90;;;;;;5092808;28;19988;-28
2023/02/25 03:40:28;;;;;;;;;;;5.40;87.80;;;;;;5092753;28;19977;-27
2023/02/25 03:43:00;;;;;;;;;;;5.40;87.70;;;;;;5092619;28;19961;-31
2023/02/25 03:45:26;;;;;;;;;;;5.30;87.70;;;;;;5092662;28;19912;-31
2023/02/25 03:47:52;;;;;;;;;;;5.30;87.80;;;;;;5092983;28;19943;-28
2023/02/25 03:50:22;;;;;;;;;;;5.30;87.90;;;;;;5092647;28;19916;-28
2023/02/25 03:52:48;;;;;;;;;;;5.30;87.90;;;;;;5092443;28;19915;-27
2023/02/25 03:55:15;;;;;;;;;;;5.20;88.00;;;;;;5092504;28;20055;-27
2023/02/25 03:57:42;;;;;;;;;;;5.20;88.10;;;;;;5092348;28;19978;-31
2023/02/25 04:00:15;;;;;;;;;;;5.20;88.10;;;;;;5092061;28;19977;-29
2023/02/25 04:02:42;;;;;;;;;;;5.10;88.00;;;;;;5092327;28;19931;-28
2023/02/25 04:05:09;;;;;;;;;;;5.10;88.10;;;;;;5092733;28;19908;-38
2023/02/25 04:07:34;;;;;;;;;;;5.10;88.00;;;;;;5092141;28;19908;-29
2023/02/25 04:10:00;;;;;;;;;;;5.10;88.10;;;;;;5091874;28;20409;-29
2023/02/25 04:12:26;;;;;;;;;;;5.10;88.10;;;;;;5091835;28;20352;-30
2023/02/25 04:14:51;;;;;;;;;;;5.20;88.10;;;;;;5092175;28;19974;-29
2023/02/25 04:17:18;;;;;;;;;;;5.20;88.10;;;;;;5091705;28;20034;-27
2023/02/25 04:19:43;;;;;;;;;;;5.20;88.00;;;;;;5091731;28;19942;-30
2023/02/25 04:22:09;;;;;;;;;;;5.30;88.00;;;;;;5092743;28;19908;-31
2023/02/25 04:24:34;;;;;;;;;;;5.20;87.90;;;;;;5091992;28;20421;-29
2023/02/25 04:27:01;;;;;;;;;;;5.20;88.00;;;;;;5092380;28;20029;-31
2023/02/25 04:29:27;;;;;;;;;;;5.20;88.00;;;;;;5091974;28;19908;-28
2023/02/25 04:31:52;;;;;;;;;;;5.10;88.00;;;;;;5092261;28;19908;-28
2023/02/25 04:34:18;;;;;;;;;;;5.00;88.00;;;;;;5092020;28;19915;-38
2023/02/25 04:36:43;;;;;;;;;;;5.00;88.00;;;;;;5091887;28;19912;-33
2023/02/25 04:39:09;;;;;;;;;;;5.00;88.20;;;;;;5091841;28;19918;-33
2023/02/25 04:41:35;;;;;;;;;;;5.00;88.20;;;;;;5091905;28;19916;-26
2023/02/25 04:44:02;;;;;;;;;;;5.00;88.20;;;;;;5091795;28;19908;-31
2023/02/25 04:46:28;;;;;;;;;;;5.00;88.20;;;;;;5092021;28;19995;-28
2023/02/25 04:48:54;;;;;;;;;;;5.00;88.30;;;;;;5091225;28;19977;-29
2023/02/25 04:51:20;;;;;;;;;;;5.00;88.40;;;;;;5090359;28;19916;-31
2023/02/25 04:53:45;;;;;;;;;;;4.90;88.30;;;;;;5091764;28;19912;-30
2023/02/25 04:56:11;;;;;;;;;;;4.90;88.30;;;;;;5091809;28;19908;-31
2023/02/25 04:58:37;;;;;;;;;;;4.90;88.40;;;;;;5091592;28;20373;-27
2023/02/25 05:01:04;;;;;;;;;;;4.90;88.50;;;;;;5091818;28;19915;-31
2023/02/25 05:03:30;;;;;;;;;;;4.90;88.40;;;;;;5091410;28;19908;-29
2023/02/25 05:05:56;;;;;;;;;;;4.90;88.30;;;;;;5091435;28;19909;-27
2023/02/25 05:08:21;;;;;;;;;;;5.00;88.40;;;;;;5091367;28;19953;-29
2023/02/25 05:10:47;;;;;;;;;;;5.00;88.30;;;;;;5091301;28;19915;-28
2023/02/25 05:13:12;;;;;;;;;;;5.00;88.20;;;;;;5091650;28;20267;-42
2023/02/25 05:15:38;;;;;;;;;;;5.00;88.20;;;;;;5091259;28;20383;-29
2023/02/25 05:18:03;;;;;;;;;;;5.00;88.20;;;;;;5091065;28;19995;-28
2023/02/25 05:20:29;;;;;;;;;;;5.00;88.20;;;;;;5091241;28;20326;-28
2023/02/25 05:22:54;;;;;;;;;;;5.00;88.20;;;;;;5091394;28;19908;-37
2023/02/25 05:25:20;;;;;;;;;;;5.00;88.10;;;;;;5091224;28;19943;-29
2023/02/25 05:27:45;;;;;;;;;;;5.00;87.90;;;;;;5091592;28;20317;-29
2023/02/25 05:30:11;;;;;;;;;;;5.00;88.00;;;;;;5091258;28;20438;-34
2023/02/25 05:32:37;;;;;;;;;;;5.00;88.00;;;;;;5089712;28;19957;-27
2023/02/25 05:35:03;;;;;;;;;;;5.00;87.90;;;;;;5091285;28;19912;-29
2023/02/25 05:37:30;;;;;;;;;;;5.10;87.90;;;;;;5091438;28;19915;-28
2023/02/25 05:39:57;;;;;;;;;;;5.10;87.80;;;;;;5090987;28;19912;-28
2023/02/25 05:42:23;;;;;;;;;;;5.00;87.60;;;;;;5091458;28;20347;-29
2023/02/25 05:44:48;;;;;;;;;;;5.10;87.40;;;;;;5091096;28;19947;-30
2023/02/25 05:47:14;;;;;;;;;;;5.00;87.50;;;;;;5091032;28;19951;-27
2023/02/25 05:49:41;;;;;;;;;;;5.00;87.50;;;;;;5091495;28;19908;-34
2023/02/25 05:52:06;;;;;;;;;;;5.10;87.50;;;;;;5089683;28;20007;-27
2023/02/25 05:54:31;;;;;;;;;;;5.10;87.50;;;;;;5091121;28;19939;-35
2023/02/25 05:56:57;;;;;;;;;;;5.00;87.30;;;;;;5091041;28;19908;-28
2023/02/25 05:59:22;;;;;;;;;;;5.00;87.40;;;;;;5091026;28;19912;-27
2023/02/25 06:01:48;;;;;;;;;;;5.00;87.50;;;;;;5093205;28;19916;-30
2023/02/25 06:04:13;;;;;;;;;;;5.00;87.50;;;;;;5095329;28;20003;-28
2023/02/25 06:06:40;;;;;;;;;;;5.00;87.80;;;;;;5095107;28;19908;-31
2023/02/25 06:09:08;;;;;;;;;;;5.00;87.60;;;;;;5094938;28;19919;-34
2023/02/25 06:11:33;;;;;;;;;;;5.10;87.60;;;;;;5095080;28;19915;-30
2023/02/25 06:13:59;;;;;;;;;;;5.10;87.50;;;;;;5094897;28;20348;-29
2023/02/25 06:16:30;;;;;;;;;;;5.10;87.30;;;;;;5095113;28;19912;-30
2023/02/25 06:18:57;;;;;;;;;;;5.10;87.40;;;;;;5094537;28;19921;-29
2023/02/25 06:21:22;;;;;;;;;;;5.10;87.40;;;;;;5094765;28;20002;-31
2023/02/25 06:23:49;;;;;;;;;;;5.10;87.40;;;;;;5093407;28;19962;-30
2023/02/25 06:26:15;;;;;;;;;;;5.10;87.40;;;;;;5094897;28;19908;-33
2023/02/25 06:28:40;;;;;;;;;;;5.10;87.30;;;;;;5094821;28;20413;-33
2023/02/25 06:31:10;;;;;;;;;;;5.10;87.30;;;;;;5094793;28;19956;-29
2023/02/25 06:33:36;;;;;;;;;;;5.10;87.30;;;;;;5094394;28;19944;-30
2023/02/25 06:36:03;;;;;;;;;;;5.10;87.30;;;;;;5094460;28;19915;-35
2023/02/25 06:38:29;;;;;;;;;;;5.00;87.20;;;;;;5094558;28;19981;-27
2023/02/25 06:40:55;;;;;;;;;;;5.00;87.30;;;;;;5094212;28;19912;-29
2023/02/25 06:43:20;;;;;;;;;;;5.00;87.30;;;;;;5094399;28;20011;-37
2023/02/25 06:45:46;;;;;;;;;;;5.00;87.30;;;;;;5094136;28;19908;-32
2023/02/25 06:48:11;;;;;;;;;;;5.00;87.20;;;;;;5092980;28;20020;-42
2023/02/25 06:50:38;;;;;;;;;;;5.10;87.10;;;;;;5094444;28;19927;-27
2023/02/25 06:53:03;;;;;;;;;;;5.10;87.00;;;;;;5094038;28;20009;-29
2023/02/25 06:55:29;;;;;;;;;;;5.10;86.80;;;;;;5092636;28;19911;-29
2023/02/25 06:57:54;;;;;;;;;;;5.10;86.90;;;;;;5094215;28;19938;-28
2023/02/25 07:00:20;;;;;;;;;;;5.00;86.90;;;;;;5094069;28;19912;-28
2023/02/25 07:02:45;;;;;;;;;;;5.00;87.10;;;;;;5094097;28;19951;-31
2023/02/25 07:05:11;;;;;;;;;;;5.00;87.10;;;;;;5094038;28;19957;-30
2023/02/25 07:07:36;;;;;;;;;;;5.00;87.20;;;;;;5093581;28;20332;-40
2023/02/25 07:10:02;;;;;;;;;;;5.00;87.30;;;;;;5093584;28;19908;-29
2023/02/25 07:12:27;;;;;;;;;;;4.90;87.30;;;;;;5093266;28;19915;-29
2023/02/25 07:14:53;;;;;;;;;;;4.90;87.30;;;;;;5093632;28;19908;-31
2023/02/25 07:17:18;;;;;;;;;;;4.90;87.40;;;;;;5093528;28;19908;-27
2023/02/25 07:19:44;;;;;;;;;;;4.90;87.40;;;;;;5093195;28;20000;-33
2023/02/25 07:22:16;;;;;;;;;;;4.90;87.50;;;;;;5093794;28;19965;-29
2023/02/25 07:24:41;;;;;;;;;;;4.90;87.50;;;;;;5091998;28;20378;-29
2023/02/25 07:27:07;;;;;;;;;;;5.00;87.70;;;;;;5093359;28;20019;-28
2023/02/25 07:29:32;;;;;;;;;;;5.00;87.60;;;;;;5093273;28;19939;-28
2023/02/25 07:31:58;;;;;;;;;;;5.00;87.50;;;;;;5093278;28;19908;-29
2023/02/25 07:34:25;;;;;;;;;;;5.10;87.60;;;;;;5093462;28;19908;-33
2023/02/25 07:36:50;;;;;;;;;;;5.10;87.60;;;;;;5093171;28;19908;-27
2023/02/25 07:39:16;;;;;;;;;;;5.20;87.60;;;;;;5093247;28;19916;-30
2023/02/25 07:41:41;;;;;;;;;;;5.20;87.50;;;;;;5093337;28;20256;-32
2023/02/25 07:44:08;;;;;;;;;;;5.20;87.40;;;;;;5093325;28;19931;-40
2023/02/25 07:46:34;;;;;;;;;;;5.30;87.50;;;;;;5092944;28;19916;-31
2023/02/25 07:48:59;;;;;;;;;;;5.30;87.40;;;;;;5091563;28;19934;-33
2023/02/25 07:51:25;;;;;;;;;;;5.30;87.30;;;;;;5093225;28;19916;-33
2023/02/25 07:53:52;;;;;;;;;;;5.40;87.30;;;;;;5093235;28;20183;-28
2023/02/25 07:56:18;;;;;;;;;;;5.40;87.30;;;;;;5092741;28;20010;-30
2023/02/25 07:58:44;;;;;;;;;;;5.40;87.30;;;;;;5092660;28;20015;-32
2023/02/25 08:01:10;;;;;;;;;;;5.40;87.30;;;;;;5092672;28;19951;-35
2023/02/25 08:03:36;;;;;;;;;;;5.50;87.30;;;;;;5092579;28;19912;-32
2023/02/25 08:06:06;;;;;;;;;;;5.50;87.30;;;;;;5092592;28;20059;-31
2023/02/25 08:08:32;;;;;;;;;;;5.60;87.00;;;;;;5092753;28;20386;-29
2023/02/25 08:10:57;;;;;;;;;;;5.70;86.90;;;;;;5092425;28;19962;-31
2023/02/25 08:13:23;;;;;;;;;;;5.70;86.90;;;;;;5092715;28;19953;-29
2023/02/25 08:15:48;;;;;;;;;;;5.70;86.90;;;;;;5092392;28;19912;-29
2023/02/25 08:18:14;;;;;;;;;;;5.70;86.70;;;;;;5092394;28;20015;-29
2023/02/25 08:20:44;;;;;;;;;;;5.70;86.80;;;;;;5092316;28;19912;-30
2023/02/25 08:23:09;;;;;;;;;;;5.70;86.70;;;;;;5092070;28;20002;-31
2023/02/25 08:25:35;;;;;;;;;;;5.80;86.50;;;;;;5091801;28;20434;-31
2023/02/25 08:28:00;;;;;;;;;;;5.80;86.60;;;;;;5092528;28;20257;-28
2023/02/25 08:30:26;;;;;;;;;;;5.80;86.70;;;;;;5092273;28;19923;-32
2023/02/25 08:32:52;;;;;;;;;;;5.90;86.40;;;;;;5092073;28;19912;-33
2023/02/25 08:35:17;;;;;;;;;;;5.80;86.10;;;;;;5092217;28;20033;-28
2023/02/25 08:37:44;;;;;;;;;;;5.90;85.80;;;;;;5092184;28;19908;-30
2023/02/25 08:40:10;;;;;;;;;;;5.90;86.10;;;;;;5092219;28;20380;-30
2023/02/25 08:42:36;;;;;;;;;;;5.90;86.20;;;;;;5091847;28;19912;-29
2023/02/25 08:45:02;;;;;;;;;;;5.90;86.20;;;;;;5092100;28;19908;-34
2023/02/25 08:47:27;;;;;;;;;;;5.90;86.20;;;;;;5091999;28;20337;-36
2023/02/25 08:49:53;;;;;;;;;;;6.00;85.30;;;;;;5091845;28;19908;-32
2023/02/25 08:52:19;;;;;;;;;;;5.90;85.60;;;;;;5091830;28;19996;-44
2023/02/25 08:54:44;;;;;;;;;;;5.90;85.50;;;;;;5091843;28;19908;-30
2023/02/25 08:57:09;;;;;;;;;;;5.90;85.60;;;;;;5091851;28;20292;-28
2023/02/25 08:59:35;;;;;;;;;;;6.00;85.60;;;;;;5091490;28;19926;-29
2023/02/25 09:02:02;;;;;;;;;;;6.00;85.60;;;;;;5091909;28;19908;-35
2023/02/25 09:04:27;;;;;;;;;;;6.00;85.20;;;;;;5091666;28;20417;-31
2023/02/25 09:06:53;;;;;;;;;;;6.00;84.70;;;;;;5091707;28;19955;-30
2023/02/25 09:09:19;;;;;;;;;;;6.00;84.80;;;;;;5091244;28;19916;-27
2023/02/25 09:11:45;;;;;;;;;;;5.90;84.80;;;;;;5091441;28;19953;-30
2023/02/25 09:14:11;;;;;;;;;;;5.90;85.20;;;;;;5091389;28;19915;-30
2023/02/25 09:16:37;;;;;;;;;;;5.90;84.90;;;;;;5091444;28;20322;-35
2023/02/25 09:19:02;;;;;;;;;;;5.90;85.20;;;;;;5091389;28;20011;-32
2023/02/25 09:21:28;;;;;;;;;;;5.90;85.10;;;;;;5091285;28;20004;-28
2023/02/25 09:23:53;;;;;;;;;;;5.90;85.30;;;;;;5091407;28;20000;-28
2023/02/25 09:26:20;;;;;;;;;;;6.00;85.00;;;;;;5091495;28;19908;-37
2023/02/25 09:28:46;;;;;;;;;;;6.10;84.80;;;;;;5091653;28;19912;-29
2023/02/25 09:31:12;;;;;;;;;;;6.00;84.60;;;;;;5091431;28;20318;-33
2023/02/25 09:33:37;;;;;;;;;;;6.10;84.90;;;;;;5091045;28;19916;-37
2023/02/25 09:36:04;;;;;;;;;;;6.00;84.50;;;;;;5093984;28;19908;-35
2023/02/25 09:38:30;;;;;;;;;;;6.00;84.90;;;;;;5095722;28;19909;-40
2023/02/25 09:40:55;;;;;;;;;;;6.00;85.00;;;;;;5095669;28;19915;-31
2023/02/25 09:43:27;;;;;;;;;;;6.00;85.00;;;;;;5094132;28;19981;-28
2023/02/25 09:46:04;;;;;;;;;;;6.10;84.60;;;;;;5095385;28;19912;-33
2023/02/25 09:48:50;;;;;;;;;;;6.10;84.80;;;;;;5095292;28;19908;-28
2023/02/25 09:51:18;;;;;;;;;;;6.10;85.00;;;;;;5094951;28;19931;-32
2023/02/25 09:53:48;;;;;;;;;;;6.30;84.90;;;;;;5091559;28;19966;-33
2023/02/25 09:56:15;;;;;;;;;;;6.40;84.30;;;;;;5092164;28;19956;-30
2023/02/25 09:58:52;;;;;;;;;;;6.50;84.50;;;;;;5095326;28;20011;-32
2023/02/25 10:01:33;;;;;;;;;;;6.50;82.80;;;;;;5095320;28;20307;-29
2023/02/25 10:04:04;;;;;;;;;;;6.60;82.90;;;;;;5094880;28;19909;-29
2023/02/25 10:06:32;;;;;;;;;;;6.50;81.00;;;;;;5095291;28;19908;-29
2023/02/25 10:09:02;;;;;;;;;;;6.50;81.30;;;;;;5095065;28;20217;-28
2023/02/25 10:11:34;;;;;;;;;;;6.50;82.20;;;;;;5095033;28;19915;-30
2023/02/25 10:14:08;;;;;;;;;;;6.60;82.10;;;;;;5094646;28;19908;-34
2023/02/25 10:16:40;;;;;;;;;;;6.60;82.50;;;;;;5094783;28;20383;-32
2023/02/25 10:19:14;;;;;;;;;;;6.70;79.90;;;;;;5094465;28;19931;-33
2023/02/25 10:21:49;;;;;;;;;;;6.70;80.70;;;;;;5094488;28;20042;-37
2023/02/25 10:24:36;;;;;;;;;;;6.80;81.50;;;;;;5094789;28;20390;-30
2023/02/25 10:27:22;;;;;;;;;;;6.90;81.70;;;;;;5094479;28;19995;-29
2023/02/25 10:30:22;;;;;;;;;;;7.10;80.80;;;;;;5094379;28;20383;-31
2023/02/25 10:32:48;;;;;;;;;;;7.30;80.20;;;;;;5094048;28;19908;-33
2023/02/25 10:35:16;;;;;;;;;;;7.40;79.80;;;;;;5094641;28;19943;-29
2023/02/25 10:37:42;;;;;;;;;;;7.50;77.70;;;;;;5094068;28;19908;-30
2023/02/25 10:40:13;;;;;;;;;;;7.50;78.50;;;;;;5094100;28;20045;-32
2023/02/25 10:42:38;;;;;;;;;;;7.50;75.10;;;;;;5094347;28;20276;-31
2023/02/25 10:45:08;;;;;;;;;;;7.40;76.40;;;;;;5094355;28;19915;-30
2023/02/25 10:47:36;;;;;;;;;;;7.30;76.00;;;;;;5093492;28;19908;-38
2023/02/25 10:50:17;;;;;;;;;;;7.20;73.90;;;;;;5094276;28;20022;-32
2023/02/25 10:52:56;;;;;;;;;;;6.90;72.20;;;;;;5094014;28;19915;-28
2023/02/25 10:55:40;;;;;;;;;;;6.50;73.00;;;;;;5094037;28;20283;-28
2023/02/25 10:58:19;;;;;;;;;;;6.30;74.50;;;;;;5094315;28;19912;-29
2023/02/25 11:00:52;;;;;;;;;;;6.10;74.80;;;;;;5093742;28;19912;-30
2023/02/25 11:03:22;;;;;;;;;;;6.00;74.90;;;;;;5093886;28;19908;-29
2023/02/25 11:05:47;;;;;;;;;;;5.80;76.10;;;;;;5094020;28;20366;-31
2023/02/25 11:08:31;;;;;;;;;;;5.80;76.20;;;;;;5093745;28;19967;-29
2023/02/25 11:11:04;;;;;;;;;;;5.80;75.90;;;;;;5093688;28;19991;-32
2023/02/25 11:13:33;;;;;;;;;;;5.80;76.50;;;;;;5093456;28;19908;-28
2023/02/25 11:16:01;;;;;;;;;;;5.70;75.50;;;;;;5093527;28;20385;-33
2023/02/25 11:18:28;;;;;;;;;;;5.70;75.80;;;;;;5093210;28;19920;-30
2023/02/25 11:20:54;;;;;;;;;;;5.70;75.40;;;;;;5093860;28;19962;-30
2023/02/25 11:23:22;;;;;;;;;;;5.70;75.80;;;;;;5093749;28;19908;-28
2023/02/25 11:25:50;;;;;;;;;;;5.70;75.50;;;;;;5093292;28;19908;-33
2023/02/25 11:28:24;;;;;;;;;;;5.80;75.20;;;;;;5093305;28;19912;-33
2023/02/25 11:30:50;;;;;;;;;;;5.90;74.80;;;;;;5093089;28;19915;-28
2023/02/25 11:33:27;;;;;;;;;;;6.10;75.10;;;;;;5093732;28;19912;-31
2023/02/25 11:35:58;;;;;;;;;;;6.20;74.30;;;;;;5093263;28;19927;-29
2023/02/25 11:38:31;;;;;;;;;;;6.30;73.00;;;;;;5093173;28;19912;-36
2023/02/25 11:40:56;;;;;;;;;;;6.50;73.00;;;;;;5093408;28;19912;-33
2023/02/25 11:43:22;;;;;;;;;;;6.60;71.10;;;;;;5093486;28;20377;-29
2023/02/25 11:45:50;;;;;;;;;;;6.70;72.70;;;;;;5092936;28;20275;-44
2023/02/25 11:48:18;;;;;;;;;;;6.80;71.80;;;;;;5093058;28;19916;-31
2023/02/25 11:50:55;;;;;;;;;;;7.00;68.80;;;;;;5093296;28;19934;-29
2023/02/25 11:53:35;;;;;;;;;;;7.20;66.20;;;;;;5092917;28;19908;-28
2023/02/25 11:56:07;;;;;;;;;;;7.20;61.40;;;;;;5093112;28;20381;-29
2023/02/25 11:58:45;;;;;;;;;;;7.30;62.60;;;;;;5091621;28;20014;-32
2023/02/25 12:01:18;;;;;;;;;;;7.30;63.80;;;;;;5092770;28;20368;-34
2023/02/25 12:03:56;;;;;;;;;;;7.30;64.50;;;;;;5092783;28;19915;-29
2023/02/25 12:06:29;;;;;;;;;;;7.40;60.80;;;;;;5093116;28;19931;-38
2023/02/25 12:09:10;;;;;;;;;;;7.30;60.90;;;;;;5092640;28;19912;-30
2023/02/25 12:11:47;;;;;;;;;;;7.20;59.60;;;;;;5092481;28;19912;-31
2023/02/25 12:14:24;;;;;;;;;;;7.10;61.00;;;;;;5092455;28;19955;-30
2023/02/25 12:16:55;;;;;;;;;;;7.10;59.00;;;;;;5092580;28;19908;-30
2023/02/25 12:19:34;;;;;;;;;;;7.20;59.10;;;;;;5092233;28;19920;-35
2023/02/25 12:22:03;;;;;;;;;;;7.30;58.80;;;;;;5092430;28;20006;-33
2023/02/25 12:24:35;;;;;;;;;;;7.40;60.50;;;;;;5092234;28;19908;-31
2023/02/25 12:27:04;;;;;;;;;;;7.60;61.20;;;;;;5092634;28;19908;-30
2023/02/25 12:29:47;;;;;;;;;;;7.70;59.20;;;;;;5092138;28;19908;-31
2023/02/25 12:32:13;;;;;;;;;;;7.70;60.10;;;;;;5092055;28;19908;-28
2023/02/25 12:34:47;;;;;;;;;;;7.70;59.80;;;;;;5092089;28;19908;-30
2023/02/25 12:37:15;;;;;;;;;;;7.70;58.80;;;;;;5092183;28;20335;-35
2023/02/25 12:39:59;;;;;;;;;;;7.60;60.20;;;;;;5091894;28;20369;-33
2023/02/25 12:42:33;;;;;;;;;;;7.50;59.10;;;;;;5092021;28;19936;-32
2023/02/25 12:44:59;;;;;;;;;;;7.40;59.50;;;;;;5091856;28;19958;-30
2023/02/25 12:47:25;;;;;;;;;;;7.40;59.70;;;;;;5092339;28;20574;-31
2023/02/25 12:50:02;;;;;;;;;;;7.40;59.20;;;;;;5092090;28;19962;-32
2023/02/25 12:52:28;;;;;;;;;;;7.40;60.80;;;;;;5091898;28;19957;-29
2023/02/25 12:55:01;;;;;;;;;;;7.50;59.50;;;;;;5091688;28;19908;-29
2023/02/25 12:57:42;;;;;;;;;;;7.60;60.30;;;;;;5091699;28;19908;-35
2023/02/25 13:00:13;;;;;;;;;;;7.70;59.80;;;;;;5091913;28;19912;-39
2023/02/25 13:03:01;;;;;;;;;;;7.70;58.80;;;;;;5091909;28;20363;-34
2023/02/25 13:05:28;;;;;;;;;;;7.70;59.50;;;;;;5091640;28;19908;-33
2023/02/25 13:08:06;;;;;;;;;;;7.60;60.30;;;;;;5092108;28;19908;-29
2023/02/25 13:10:36;;;;;;;;;;;7.60;60.20;;;;;;5091238;28;19960;-32
2023/02/25 13:13:20;;;;;;;;;;;7.70;57.70;;;;;;5092079;28;19957;-32
2023/02/25 13:16:04;;;;;;;;;;;7.70;57.30;;;;;;5091693;28;19912;-34
2023/02/25 13:18:52;;;;;;;;;;;7.90;58.50;;;;;;5091167;28;19931;-33
2023/02/25 13:21:26;;;;;;;;;;;8.10;57.90;;;;;;5090709;28;20332;-35
2023/02/25 13:23:56;;;;;;;;;;;8.10;58.90;;;;;;5091726;28;19959;-34
2023/02/25 13:26:38;;;;;;;;;;;8.00;57.90;;;;;;5091325;28;19908;-30
2023/02/25 13:29:28;;;;;;;;;;;7.90;57.50;;;;;;5091471;28;19938;-29
2023/02/25 13:31:54;;;;;;;;;;;7.70;56.30;;;;;;5091423;28;19962;-31
2023/02/25 13:34:41;;;;;;;;;;;7.70;56.60;;;;;;5091310;28;19912;-32
2023/02/25 13:37:25;;;;;;;;;;;7.60;57.60;;;;;;5091176;28;19915;-32
2023/02/25 13:40:06;;;;;;;;;;;7.70;58.10;;;;;;5091438;28;19912;-35
2023/02/25 13:43:03;;;;;;;;;;;7.80;56.40;;;;;;5091186;28;19908;-31
2023/02/25 13:45:46;;;;;;;;;;;7.90;54.00;;;;;;5067525;28;20029;-32
2023/02/25 13:48:30;;;;;;;;;;;7.80;53.00;;;;;;5091145;28;19908;-33
2023/02/25 13:51:10;;;;;;;;;;;7.80;54.70;;;;;;5091078;28;19912;-34
2023/02/25 13:53:54;;;;;;;;;;;7.80;55.10;;;;;;5091348;28;19954;-30
2023/02/25 13:56:35;;;;;;;;;;;7.80;55.30;;;;;;5091180;28;19912;-29
2023/02/25 13:59:15;;;;;;;;;;;7.80;51.60;;;;;;5091377;28;19918;-28
2023/02/25 14:01:48;;;;;;;;;;;7.80;53.30;;;;;;5091270;28;19908;-30
2023/02/25 14:04:13;;;;;;;;;;;7.70;51.80;;;;;;5091099;28;19909;-29
2023/02/25 14:07:14;;;;;;;;;;;7.80;52.90;;;;;;5091292;28;20243;-35
2023/02/25 14:09:43;;;;;;;;;;;7.80;53.20;;;;;;5048112;28;20008;-32
2023/02/25 14:12:27;;;;;;;;;;;7.90;52.40;;;;;;5083086;28;19914;-33
2023/02/25 14:15:07;;;;;;;;;;;8.00;53.70;;;;;;5090966;28;19908;-27
2023/02/25 14:17:51;;;;;;;;;;;8.10;53.50;;;;;;5091418;28;19936;-28
2023/02/25 14:20:49;;;;;;;;;;;8.10;54.10;;;;;;5090809;28;19959;-28
2023/02/25 14:23:20;;;;;;;;;;;8.20;53.30;;;;;;5075635;28;19960;-32
2023/02/25 14:25:48;;;;;;;;;;;8.20;52.10;;;;;;5094700;28;19959;-29
2023/02/25 14:28:27;;;;;;;;;;;8.20;51.50;;;;;;5094549;28;19912;-31
2023/02/25 14:30:58;;;;;;;;;;;8.20;54.30;;;;;;5094628;28;20291;-32
2023/02/25 14:33:33;;;;;;;;;;;8.20;52.80;;;;;;5094510;28;19912;-31
2023/02/25 14:36:12;;;;;;;;;;;8.30;56.40;;;;;;5094714;28;19912;-33
2023/02/25 14:38:37;;;;;;;;;;;8.40;54.00;;;;;;5094297;28;20003;-34
2023/02/25 14:41:06;;;;;;;;;;;8.40;54.60;;;;;;5094752;28;19951;-37
2023/02/25 14:43:32;;;;;;;;;;;8.40;47.80;;;;;;5094332;28;19912;-29
2023/02/25 14:46:16;;;;;;;;;;;8.30;46.60;;;;;;5094260;28;19958;-32